sensor_id;sensor_type;location;lat;lon;timestamp;P1;durP1;ratioP1;P2;durP2;ratioP2
59854;SDS011;45732;52.850;6.896;2023-08-01T00:00:45;11.90;;;6.72;;
59854;SDS011;45732;52.850;6.896;2023-08-01T00:03:11;13.48;;;7.07;;
59854;SDS011;45732;52.850;6.896;2023-08-01T00:05:38;13.10;;;7.28;;
59854;SDS011;45732;52.850;6.896;2023-08-01T00:08:09;13.85;;;7.88;;
59854;SDS011;45732;52.850;6.896;2023-08-01T00:10:42;16.42;;;7.95;;
59854;SDS011;45732;52.850;6.896;2023-08-01T00:13:08;10.60;;;8.45;;
59854;SDS011;45732;52.850;6.896;2023-08-01T00:15:34;14.35;;;9.45;;
59854;SDS011;45732;52.850;6.896;2023-08-01T00:18:00;15.02;;;8.68;;
59854;SDS011;45732;52.850;6.896;2023-08-01T00:20:26;13.85;;;8.68;;
59854;SDS011;45732;52.850;6.896;2023-08-01T00:22:52;14.05;;;8.88;;
59854;SDS011;45732;52.850;6.896;2023-08-01T00:25:18;16.30;;;9.48;;
59854;SDS011;45732;52.850;6.896;2023-08-01T00:27:44;17.17;;;10.05;;
59854;SDS011;45732;52.850;6.896;2023-08-01T00:30:10;16.50;;;9.70;;
59854;SDS011;45732;52.850;6.896;2023-08-01T00:32:36;16.20;;;9.52;;
59854;SDS011;45732;52.850;6.896;2023-08-01T00:35:03;17.88;;;9.43;;
59854;SDS011;45732;52.850;6.896;2023-08-01T00:37:29;16.20;;;9.95;;
59854;SDS011;45732;52.850;6.896;2023-08-01T00:39:55;15.60;;;9.63;;
59854;SDS011;45732;52.850;6.896;2023-08-01T00:42:21;15.68;;;10.25;;
59854;SDS011;45732;52.850;6.896;2023-08-01T00:44:46;15.52;;;9.82;;
59854;SDS011;45732;52.850;6.896;2023-08-01T00:47:14;15.52;;;10.10;;
59854;SDS011;45732;52.850;6.896;2023-08-01T00:49:40;15.93;;;10.27;;
59854;SDS011;45732;52.850;6.896;2023-08-01T00:52:06;15.30;;;9.60;;
59854;SDS011;45732;52.850;6.896;2023-08-01T00:54:33;12.48;;;9.25;;
59854;SDS011;45732;52.850;6.896;2023-08-01T00:57:04;19.27;;;10.55;;
59854;SDS011;45732;52.850;6.896;2023-08-01T00:59:30;15.57;;;9.93;;
59854;SDS011;45732;52.850;6.896;2023-08-01T01:01:56;18.13;;;10.55;;
59854;SDS011;45732;52.850;6.896;2023-08-01T01:04:23;16.25;;;10.27;;
59854;SDS011;45732;52.850;6.896;2023-08-01T01:09:31;17.67;;;10.23;;
59854;SDS011;45732;52.850;6.896;2023-08-01T01:11:57;14.77;;;9.98;;
59854;SDS011;45732;52.850;6.896;2023-08-01T01:14:25;14.63;;;9.50;;
59854;SDS011;45732;52.850;6.896;2023-08-01T01:16:51;16.52;;;10.75;;
59854;SDS011;45732;52.850;6.896;2023-08-01T01:19:17;17.40;;;10.63;;
59854;SDS011;45732;52.850;6.896;2023-08-01T01:21:42;15.15;;;9.52;;
59854;SDS011;45732;52.850;6.896;2023-08-01T01:24:09;17.20;;;10.05;;
59854;SDS011;45732;52.850;6.896;2023-08-01T01:26:36;14.95;;;10.10;;
59854;SDS011;45732;52.850;6.896;2023-08-01T01:29:03;14.75;;;9.40;;
59854;SDS011;45732;52.850;6.896;2023-08-01T01:31:30;16.63;;;10.25;;
59854;SDS011;45732;52.850;6.896;2023-08-01T01:33:58;16.83;;;9.73;;
59854;SDS011;45732;52.850;6.896;2023-08-01T01:36:24;14.77;;;9.27;;
59854;SDS011;45732;52.850;6.896;2023-08-01T01:38:49;17.30;;;9.43;;
59854;SDS011;45732;52.850;6.896;2023-08-01T01:41:15;14.10;;;8.98;;
59854;SDS011;45732;52.850;6.896;2023-08-01T01:43:41;13.98;;;8.88;;
59854;SDS011;45732;52.850;6.896;2023-08-01T01:46:07;18.17;;;9.43;;
59854;SDS011;45732;52.850;6.896;2023-08-01T01:48:32;17.95;;;8.90;;
59854;SDS011;45732;52.850;6.896;2023-08-01T01:50:58;18.42;;;10.07;;
59854;SDS011;45732;52.850;6.896;2023-08-01T01:53:24;15.43;;;9.73;;
59854;SDS011;45732;52.850;6.896;2023-08-01T01:55:49;14.38;;;8.88;;
59854;SDS011;45732;52.850;6.896;2023-08-01T01:58:15;19.42;;;9.63;;
59854;SDS011;45732;52.850;6.896;2023-08-01T02:00:41;14.35;;;9.25;;
59854;SDS011;45732;52.850;6.896;2023-08-01T02:03:06;14.80;;;9.75;;
59854;SDS011;45732;52.850;6.896;2023-08-01T02:05:35;15.85;;;9.20;;
59854;SDS011;45732;52.850;6.896;2023-08-01T02:08:02;16.40;;;9.60;;
59854;SDS011;45732;52.850;6.896;2023-08-01T02:10:30;16.67;;;9.63;;
59854;SDS011;45732;52.850;6.896;2023-08-01T02:12:55;12.95;;;8.73;;
59854;SDS011;45732;52.850;6.896;2023-08-01T02:15:21;15.38;;;8.82;;
59854;SDS011;45732;52.850;6.896;2023-08-01T02:17:47;14.52;;;9.13;;
59854;SDS011;45732;52.850;6.896;2023-08-01T02:20:12;16.85;;;8.68;;
59854;SDS011;45732;52.850;6.896;2023-08-01T02:22:38;14.18;;;8.15;;
59854;SDS011;45732;52.850;6.896;2023-08-01T02:25:04;16.67;;;9.40;;
59854;SDS011;45732;52.850;6.896;2023-08-01T02:27:30;15.32;;;9.65;;
59854;SDS011;45732;52.850;6.896;2023-08-01T02:29:56;17.13;;;8.68;;
59854;SDS011;45732;52.850;6.896;2023-08-01T02:32:21;15.98;;;8.20;;
59854;SDS011;45732;52.850;6.896;2023-08-01T02:34:47;16.17;;;8.35;;
59854;SDS011;45732;52.850;6.896;2023-08-01T02:37:13;13.50;;;8.00;;
59854;SDS011;45732;52.850;6.896;2023-08-01T02:39:39;16.77;;;8.63;;
59854;SDS011;45732;52.850;6.896;2023-08-01T02:42:04;12.90;;;8.13;;
59854;SDS011;45732;52.850;6.896;2023-08-01T02:44:30;14.45;;;7.75;;
59854;SDS011;45732;52.850;6.896;2023-08-01T02:46:56;15.15;;;7.82;;
59854;SDS011;45732;52.850;6.896;2023-08-01T02:49:22;14.63;;;8.68;;
59854;SDS011;45732;52.850;6.896;2023-08-01T02:51:48;14.18;;;9.50;;
59854;SDS011;45732;52.850;6.896;2023-08-01T02:54:13;16.67;;;9.18;;
59854;SDS011;45732;52.850;6.896;2023-08-01T02:56:39;18.48;;;9.05;;
59854;SDS011;45732;52.850;6.896;2023-08-01T02:59:09;14.20;;;8.32;;
59854;SDS011;45732;52.850;6.896;2023-08-01T03:01:35;15.38;;;7.78;;
59854;SDS011;45732;52.850;6.896;2023-08-01T03:04:02;15.32;;;7.97;;
59854;SDS011;45732;52.850;6.896;2023-08-01T03:06:29;13.70;;;7.65;;
59854;SDS011;45732;52.850;6.896;2023-08-01T03:08:56;13.20;;;8.13;;
59854;SDS011;45732;52.850;6.896;2023-08-01T03:11:21;16.02;;;8.23;;
59854;SDS011;45732;52.850;6.896;2023-08-01T03:13:47;15.60;;;8.00;;
59854;SDS011;45732;52.850;6.896;2023-08-01T03:16:13;12.93;;;7.80;;
59854;SDS011;45732;52.850;6.896;2023-08-01T03:18:39;18.45;;;8.15;;
59854;SDS011;45732;52.850;6.896;2023-08-01T03:21:04;16.80;;;8.35;;
59854;SDS011;45732;52.850;6.896;2023-08-01T03:23:30;14.68;;;7.35;;
59854;SDS011;45732;52.850;6.896;2023-08-01T03:25:56;15.38;;;7.15;;
59854;SDS011;45732;52.850;6.896;2023-08-01T03:28:22;14.68;;;7.60;;
59854;SDS011;45732;52.850;6.896;2023-08-01T03:30:48;16.80;;;7.50;;
59854;SDS011;45732;52.850;6.896;2023-08-01T03:33:15;13.20;;;6.85;;
59854;SDS011;45732;52.850;6.896;2023-08-01T03:35:41;13.57;;;6.80;;
59854;SDS011;45732;52.850;6.896;2023-08-01T03:38:07;15.68;;;6.80;;
59854;SDS011;45732;52.850;6.896;2023-08-01T03:40:33;14.73;;;7.00;;
59854;SDS011;45732;52.850;6.896;2023-08-01T03:42:59;13.60;;;6.10;;
59854;SDS011;45732;52.850;6.896;2023-08-01T03:45:24;15.73;;;7.15;;
59854;SDS011;45732;52.850;6.896;2023-08-01T03:47:50;14.23;;;6.78;;
59854;SDS011;45732;52.850;6.896;2023-08-01T03:50:16;21.83;;;6.78;;
59854;SDS011;45732;52.850;6.896;2023-08-01T03:52:42;17.98;;;6.63;;
59854;SDS011;45732;52.850;6.896;2023-08-01T03:55:08;15.23;;;6.80;;
59854;SDS011;45732;52.850;6.896;2023-08-01T03:57:34;16.50;;;7.30;;
59854;SDS011;45732;52.850;6.896;2023-08-01T04:00:00;16.52;;;7.43;;
59854;SDS011;45732;52.850;6.896;2023-08-01T04:02:25;14.20;;;6.93;;
59854;SDS011;45732;52.850;6.896;2023-08-01T04:04:51;11.23;;;6.57;;
59854;SDS011;45732;52.850;6.896;2023-08-01T04:07:18;13.10;;;6.45;;
59854;SDS011;45732;52.850;6.896;2023-08-01T04:09:44;13.95;;;6.40;;
59854;SDS011;45732;52.850;6.896;2023-08-01T04:12:10;13.15;;;6.03;;
59854;SDS011;45732;52.850;6.896;2023-08-01T04:14:35;13.70;;;5.90;;
59854;SDS011;45732;52.850;6.896;2023-08-01T04:17:01;13.00;;;6.05;;
59854;SDS011;45732;52.850;6.896;2023-08-01T04:19:27;8.85;;;5.30;;
59854;SDS011;45732;52.850;6.896;2023-08-01T04:21:53;12.27;;;4.57;;
59854;SDS011;45732;52.850;6.896;2023-08-01T04:24:18;9.25;;;3.88;;
59854;SDS011;45732;52.850;6.896;2023-08-01T04:26:44;8.43;;;3.67;;
59854;SDS011;45732;52.850;6.896;2023-08-01T04:29:10;10.00;;;3.20;;
59854;SDS011;45732;52.850;6.896;2023-08-01T04:31:36;8.45;;;3.03;;
59854;SDS011;45732;52.850;6.896;2023-08-01T04:34:01;6.63;;;2.38;;
59854;SDS011;45732;52.850;6.896;2023-08-01T04:36:27;5.78;;;2.28;;
59854;SDS011;45732;52.850;6.896;2023-08-01T04:38:53;5.78;;;2.30;;
59854;SDS011;45732;52.850;6.896;2023-08-01T04:41:18;8.27;;;2.75;;
59854;SDS011;45732;52.850;6.896;2023-08-01T04:43:44;6.13;;;2.20;;
59854;SDS011;45732;52.850;6.896;2023-08-01T04:46:10;6.47;;;2.58;;
59854;SDS011;45732;52.850;6.896;2023-08-01T04:48:36;5.25;;;2.00;;
59854;SDS011;45732;52.850;6.896;2023-08-01T04:51:01;6.28;;;2.15;;
59854;SDS011;45732;52.850;6.896;2023-08-01T04:53:28;5.85;;;2.05;;
59854;SDS011;45732;52.850;6.896;2023-08-01T04:55:53;5.60;;;2.08;;
59854;SDS011;45732;52.850;6.896;2023-08-01T04:58:19;5.68;;;1.80;;
59854;SDS011;45732;52.850;6.896;2023-08-01T05:00:45;4.90;;;1.80;;
59854;SDS011;45732;52.850;6.896;2023-08-01T05:03:10;5.15;;;1.80;;
59854;SDS011;45732;52.850;6.896;2023-08-01T05:05:36;7.40;;;1.70;;
59854;SDS011;45732;52.850;6.896;2023-08-01T05:08:02;8.43;;;2.10;;
59854;SDS011;45732;52.850;6.896;2023-08-01T05:10:27;4.10;;;1.80;;
59854;SDS011;45732;52.850;6.896;2023-08-01T05:12:54;2.88;;;1.50;;
59854;SDS011;45732;52.850;6.896;2023-08-01T05:15:20;5.90;;;1.90;;
59854;SDS011;45732;52.850;6.896;2023-08-01T05:17:46;5.53;;;1.80;;
59854;SDS011;45732;52.850;6.896;2023-08-01T05:20:11;4.25;;;1.58;;
59854;SDS011;45732;52.850;6.896;2023-08-01T05:22:37;5.32;;;2.13;;
59854;SDS011;45732;52.850;6.896;2023-08-01T05:25:03;5.30;;;2.00;;
59854;SDS011;45732;52.850;6.896;2023-08-01T05:27:30;6.22;;;1.88;;
59854;SDS011;45732;52.850;6.896;2023-08-01T05:29:55;5.18;;;2.00;;
59854;SDS011;45732;52.850;6.896;2023-08-01T05:32:21;5.00;;;1.90;;
59854;SDS011;45732;52.850;6.896;2023-08-01T05:34:47;4.95;;;1.70;;
59854;SDS011;45732;52.850;6.896;2023-08-01T05:37:13;3.53;;;1.40;;
59854;SDS011;45732;52.850;6.896;2023-08-01T05:39:38;7.15;;;1.92;;
59854;SDS011;45732;52.850;6.896;2023-08-01T05:42:04;5.13;;;1.55;;
59854;SDS011;45732;52.850;6.896;2023-08-01T05:44:33;4.55;;;1.80;;
59854;SDS011;45732;52.850;6.896;2023-08-01T05:46:59;5.55;;;1.90;;
59854;SDS011;45732;52.850;6.896;2023-08-01T05:49:25;4.80;;;1.50;;
59854;SDS011;45732;52.850;6.896;2023-08-01T05:51:50;6.18;;;2.05;;
59854;SDS011;45732;52.850;6.896;2023-08-01T05:54:16;6.07;;;1.80;;
59854;SDS011;45732;52.850;6.896;2023-08-01T05:56:42;5.28;;;1.92;;
59854;SDS011;45732;52.850;6.896;2023-08-01T05:59:08;6.50;;;2.30;;
59854;SDS011;45732;52.850;6.896;2023-08-01T06:01:33;5.45;;;2.15;;
59854;SDS011;45732;52.850;6.896;2023-08-01T06:03:59;6.20;;;2.35;;
59854;SDS011;45732;52.850;6.896;2023-08-01T06:06:25;8.45;;;2.40;;
59854;SDS011;45732;52.850;6.896;2023-08-01T06:08:51;6.22;;;2.05;;
59854;SDS011;45732;52.850;6.896;2023-08-01T06:11:17;6.80;;;2.10;;
59854;SDS011;45732;52.850;6.896;2023-08-01T06:13:42;5.13;;;2.30;;
59854;SDS011;45732;52.850;6.896;2023-08-01T06:16:08;5.47;;;2.15;;
59854;SDS011;45732;52.850;6.896;2023-08-01T06:18:34;5.40;;;2.15;;
59854;SDS011;45732;52.850;6.896;2023-08-01T06:21:00;6.35;;;2.00;;
59854;SDS011;45732;52.850;6.896;2023-08-01T06:23:27;6.80;;;2.30;;
59854;SDS011;45732;52.850;6.896;2023-08-01T06:25:53;5.88;;;2.30;;
59854;SDS011;45732;52.850;6.896;2023-08-01T06:28:18;4.03;;;1.90;;
59854;SDS011;45732;52.850;6.896;2023-08-01T06:30:45;4.15;;;1.80;;
59854;SDS011;45732;52.850;6.896;2023-08-01T06:33:10;5.15;;;1.83;;
59854;SDS011;45732;52.850;6.896;2023-08-01T06:35:36;4.68;;;1.60;;
59854;SDS011;45732;52.850;6.896;2023-08-01T06:38:02;5.15;;;2.00;;
59854;SDS011;45732;52.850;6.896;2023-08-01T06:40:30;3.55;;;1.55;;
59854;SDS011;45732;52.850;6.896;2023-08-01T06:42:56;4.35;;;1.90;;
59854;SDS011;45732;52.850;6.896;2023-08-01T06:45:21;5.25;;;1.77;;
59854;SDS011;45732;52.850;6.896;2023-08-01T06:47:47;5.15;;;1.90;;
59854;SDS011;45732;52.850;6.896;2023-08-01T06:50:13;5.88;;;1.63;;
59854;SDS011;45732;52.850;6.896;2023-08-01T06:52:38;9.32;;;2.30;;
59854;SDS011;45732;52.850;6.896;2023-08-01T06:55:04;4.68;;;1.92;;
59854;SDS011;45732;52.850;6.896;2023-08-01T06:57:30;5.43;;;1.92;;
59854;SDS011;45732;52.850;6.896;2023-08-01T06:59:56;5.68;;;1.90;;
59854;SDS011;45732;52.850;6.896;2023-08-01T07:02:21;4.47;;;2.08;;
59854;SDS011;45732;52.850;6.896;2023-08-01T07:04:47;3.42;;;1.75;;
59854;SDS011;45732;52.850;6.896;2023-08-01T07:07:13;5.40;;;1.98;;
59854;SDS011;45732;52.850;6.896;2023-08-01T07:09:38;6.68;;;1.98;;
59854;SDS011;45732;52.850;6.896;2023-08-01T07:12:04;5.18;;;2.05;;
59854;SDS011;45732;52.850;6.896;2023-08-01T07:14:30;4.75;;;1.90;;
59854;SDS011;45732;52.850;6.896;2023-08-01T07:16:56;5.97;;;2.10;;
59854;SDS011;45732;52.850;6.896;2023-08-01T07:19:22;6.57;;;2.00;;
59854;SDS011;45732;52.850;6.896;2023-08-01T07:21:48;6.90;;;2.00;;
59854;SDS011;45732;52.850;6.896;2023-08-01T07:24:14;6.80;;;2.25;;
59854;SDS011;45732;52.850;6.896;2023-08-01T07:26:40;5.70;;;2.08;;
59854;SDS011;45732;52.850;6.896;2023-08-01T07:29:06;7.10;;;1.90;;
59854;SDS011;45732;52.850;6.896;2023-08-01T07:31:34;4.82;;;2.00;;
59854;SDS011;45732;52.850;6.896;2023-08-01T07:34:00;5.95;;;2.00;;
59854;SDS011;45732;52.850;6.896;2023-08-01T07:36:25;5.95;;;1.60;;
59854;SDS011;45732;52.850;6.896;2023-08-01T07:38:51;6.15;;;1.70;;
59854;SDS011;45732;52.850;6.896;2023-08-01T07:41:18;5.32;;;1.98;;
59854;SDS011;45732;52.850;6.896;2023-08-01T07:43:43;6.43;;;1.80;;
59854;SDS011;45732;52.850;6.896;2023-08-01T07:46:09;6.35;;;1.70;;
59854;SDS011;45732;52.850;6.896;2023-08-01T07:48:36;5.50;;;1.73;;
59854;SDS011;45732;52.850;6.896;2023-08-01T07:51:03;7.05;;;1.75;;
59854;SDS011;45732;52.850;6.896;2023-08-01T07:53:30;5.72;;;1.55;;
59854;SDS011;45732;52.850;6.896;2023-08-01T07:55:56;5.57;;;1.80;;
59854;SDS011;45732;52.850;6.896;2023-08-01T07:58:22;5.63;;;1.60;;
59854;SDS011;45732;52.850;6.896;2023-08-01T08:00:48;6.20;;;2.05;;
59854;SDS011;45732;52.850;6.896;2023-08-01T08:03:13;6.50;;;1.85;;
59854;SDS011;45732;52.850;6.896;2023-08-01T08:05:39;6.03;;;2.00;;
59854;SDS011;45732;52.850;6.896;2023-08-01T08:08:05;5.70;;;1.90;;
59854;SDS011;45732;52.850;6.896;2023-08-01T08:10:31;9.25;;;2.08;;
59854;SDS011;45732;52.850;6.896;2023-08-01T08:12:57;7.22;;;2.13;;
59854;SDS011;45732;52.850;6.896;2023-08-01T08:15:23;6.68;;;2.15;;
59854;SDS011;45732;52.850;6.896;2023-08-01T08:17:49;7.53;;;2.25;;
59854;SDS011;45732;52.850;6.896;2023-08-01T08:20:15;6.35;;;2.08;;
59854;SDS011;45732;52.850;6.896;2023-08-01T08:22:41;6.13;;;2.15;;
59854;SDS011;45732;52.850;6.896;2023-08-01T08:25:06;8.32;;;2.22;;
59854;SDS011;45732;52.850;6.896;2023-08-01T08:27:32;6.80;;;1.92;;
59854;SDS011;45732;52.850;6.896;2023-08-01T08:29:58;7.95;;;2.30;;
59854;SDS011;45732;52.850;6.896;2023-08-01T08:32:24;6.53;;;2.05;;
59854;SDS011;45732;52.850;6.896;2023-08-01T08:34:49;7.78;;;2.42;;
59854;SDS011;45732;52.850;6.896;2023-08-01T08:37:15;7.40;;;2.10;;
59854;SDS011;45732;52.850;6.896;2023-08-01T08:39:41;5.50;;;1.88;;
59854;SDS011;45732;52.850;6.896;2023-08-01T08:42:06;7.95;;;2.30;;
59854;SDS011;45732;52.850;6.896;2023-08-01T08:44:32;8.85;;;2.30;;
59854;SDS011;45732;52.850;6.896;2023-08-01T08:47:07;8.80;;;2.20;;
59854;SDS011;45732;52.850;6.896;2023-08-01T08:49:35;7.03;;;2.33;;
59854;SDS011;45732;52.850;6.896;2023-08-01T08:52:02;7.82;;;2.22;;
59854;SDS011;45732;52.850;6.896;2023-08-01T08:54:28;8.02;;;2.50;;
59854;SDS011;45732;52.850;6.896;2023-08-01T08:56:56;10.00;;;2.50;;
59854;SDS011;45732;52.850;6.896;2023-08-01T08:59:23;8.10;;;2.70;;
59854;SDS011;45732;52.850;6.896;2023-08-01T09:01:50;10.23;;;2.90;;
59854;SDS011;45732;52.850;6.896;2023-08-01T09:04:15;8.23;;;2.38;;
59854;SDS011;45732;52.850;6.896;2023-08-01T09:06:45;6.80;;;2.38;;
59854;SDS011;45732;52.850;6.896;2023-08-01T09:09:13;6.95;;;2.58;;
59854;SDS011;45732;52.850;6.896;2023-08-01T09:11:47;9.00;;;2.60;;
59854;SDS011;45732;52.850;6.896;2023-08-01T09:14:14;9.02;;;2.75;;
59854;SDS011;45732;52.850;6.896;2023-08-01T09:16:41;9.60;;;2.80;;
59854;SDS011;45732;52.850;6.896;2023-08-01T09:19:09;7.43;;;2.80;;
59854;SDS011;45732;52.850;6.896;2023-08-01T09:21:38;9.52;;;3.30;;
59854;SDS011;45732;52.850;6.896;2023-08-01T09:24:22;8.32;;;2.80;;
59854;SDS011;45732;52.850;6.896;2023-08-01T09:26:48;8.38;;;2.83;;
59854;SDS011;45732;52.850;6.896;2023-08-01T09:29:17;9.70;;;2.92;;
59854;SDS011;45732;52.850;6.896;2023-08-01T09:31:45;11.18;;;3.75;;
59854;SDS011;45732;52.850;6.896;2023-08-01T09:34:21;10.15;;;3.22;;
59854;SDS011;45732;52.850;6.896;2023-08-01T09:36:47;9.80;;;3.28;;
59854;SDS011;45732;52.850;6.896;2023-08-01T09:39:17;9.60;;;3.33;;
59854;SDS011;45732;52.850;6.896;2023-08-01T09:41:43;9.52;;;3.47;;
59854;SDS011;45732;52.850;6.896;2023-08-01T09:44:15;10.95;;;3.70;;
59854;SDS011;45732;52.850;6.896;2023-08-01T09:46:42;10.45;;;3.15;;
59854;SDS011;45732;52.850;6.896;2023-08-01T09:49:12;9.93;;;2.83;;
59854;SDS011;45732;52.850;6.896;2023-08-01T09:51:48;8.40;;;3.20;;
59854;SDS011;45732;52.850;6.896;2023-08-01T09:54:15;9.38;;;2.80;;
59854;SDS011;45732;52.850;6.896;2023-08-01T09:56:43;8.13;;;2.83;;
59854;SDS011;45732;52.850;6.896;2023-08-01T09:59:10;6.78;;;2.42;;
59854;SDS011;45732;52.850;6.896;2023-08-01T10:01:37;7.90;;;2.85;;
59854;SDS011;45732;52.850;6.896;2023-08-01T10:04:05;5.20;;;2.05;;
59854;SDS011;45732;52.850;6.896;2023-08-01T10:06:33;5.20;;;2.08;;
59854;SDS011;45732;52.850;6.896;2023-08-01T10:09:01;6.40;;;2.42;;
59854;SDS011;45732;52.850;6.896;2023-08-01T10:11:27;6.15;;;2.20;;
59854;SDS011;45732;52.850;6.896;2023-08-01T10:13:59;6.10;;;2.15;;
59854;SDS011;45732;52.850;6.896;2023-08-01T10:16:27;5.72;;;2.10;;
59854;SDS011;45732;52.850;6.896;2023-08-01T10:18:54;6.43;;;2.38;;
59854;SDS011;45732;52.850;6.896;2023-08-01T10:21:21;7.57;;;2.20;;
59854;SDS011;45732;52.850;6.896;2023-08-01T10:23:47;5.35;;;2.15;;
59854;SDS011;45732;52.850;6.896;2023-08-01T10:26:14;6.93;;;2.08;;
59854;SDS011;45732;52.850;6.896;2023-08-01T10:28:41;8.55;;;2.40;;
59854;SDS011;45732;52.850;6.896;2023-08-01T10:31:16;4.45;;;2.00;;
59854;SDS011;45732;52.850;6.896;2023-08-01T10:33:43;5.22;;;2.20;;
59854;SDS011;45732;52.850;6.896;2023-08-01T10:36:14;7.72;;;2.05;;
59854;SDS011;45732;52.850;6.896;2023-08-01T10:44:05;6.78;;;2.20;;
59854;SDS011;45732;52.850;6.896;2023-08-01T10:46:50;5.05;;;1.60;;
59854;SDS011;45732;52.850;6.896;2023-08-01T10:49:19;7.70;;;2.10;;
59854;SDS011;45732;52.850;6.896;2023-08-01T10:51:49;7.45;;;2.15;;
59854;SDS011;45732;52.850;6.896;2023-08-01T10:54:21;7.65;;;2.40;;
59854;SDS011;45732;52.850;6.896;2023-08-01T10:56:48;8.32;;;2.50;;
59854;SDS011;45732;52.850;6.896;2023-08-01T10:59:15;7.53;;;2.20;;
59854;SDS011;45732;52.850;6.896;2023-08-01T11:01:45;7.32;;;2.10;;
59854;SDS011;45732;52.850;6.896;2023-08-01T11:06:47;6.32;;;2.42;;
59854;SDS011;45732;52.850;6.896;2023-08-01T11:09:18;9.23;;;2.50;;
59854;SDS011;45732;52.850;6.896;2023-08-01T11:11:58;6.60;;;2.28;;
59854;SDS011;45732;52.850;6.896;2023-08-01T11:14:27;7.45;;;2.60;;
59854;SDS011;45732;52.850;6.896;2023-08-01T11:16:54;9.73;;;3.25;;
59854;SDS011;45732;52.850;6.896;2023-08-01T11:19:22;9.32;;;2.90;;
59854;SDS011;45732;52.850;6.896;2023-08-01T11:21:52;9.57;;;3.33;;
59854;SDS011;45732;52.850;6.896;2023-08-01T11:24:21;7.68;;;2.50;;
59854;SDS011;45732;52.850;6.896;2023-08-01T11:26:48;6.72;;;2.30;;
59854;SDS011;45732;52.850;6.896;2023-08-01T11:29:14;7.32;;;2.42;;
59854;SDS011;45732;52.850;6.896;2023-08-01T11:31:51;7.68;;;2.63;;
59854;SDS011;45732;52.850;6.896;2023-08-01T11:34:26;8.25;;;2.20;;
59854;SDS011;45732;52.850;6.896;2023-08-01T11:36:52;5.32;;;1.90;;
59854;SDS011;45732;52.850;6.896;2023-08-01T11:39:18;5.88;;;1.80;;
59854;SDS011;45732;52.850;6.896;2023-08-01T11:41:44;7.55;;;2.10;;
59854;SDS011;45732;52.850;6.896;2023-08-01T11:44:10;7.40;;;2.30;;
59854;SDS011;45732;52.850;6.896;2023-08-01T11:46:36;7.72;;;2.10;;
59854;SDS011;45732;52.850;6.896;2023-08-01T11:49:04;7.97;;;1.90;;
59854;SDS011;45732;52.850;6.896;2023-08-01T11:51:38;7.68;;;2.22;;
59854;SDS011;45732;52.850;6.896;2023-08-01T11:54:08;8.02;;;1.98;;
59854;SDS011;45732;52.850;6.896;2023-08-01T11:56:36;7.75;;;2.15;;
59854;SDS011;45732;52.850;6.896;2023-08-01T11:59:14;9.60;;;2.35;;
59854;SDS011;45732;52.850;6.896;2023-08-01T12:01:41;9.27;;;2.47;;
59854;SDS011;45732;52.850;6.896;2023-08-01T12:04:10;11.90;;;2.35;;
59854;SDS011;45732;52.850;6.896;2023-08-01T12:06:36;11.00;;;2.70;;
59854;SDS011;45732;52.850;6.896;2023-08-01T12:09:08;8.02;;;2.58;;
59854;SDS011;45732;52.850;6.896;2023-08-01T12:11:37;8.80;;;2.58;;
59854;SDS011;45732;52.850;6.896;2023-08-01T12:14:10;7.80;;;2.30;;
59854;SDS011;45732;52.850;6.896;2023-08-01T12:16:49;7.10;;;2.50;;
59854;SDS011;45732;52.850;6.896;2023-08-01T12:19:18;10.52;;;2.78;;
59854;SDS011;45732;52.850;6.896;2023-08-01T12:21:46;7.10;;;2.10;;
59854;SDS011;45732;52.850;6.896;2023-08-01T12:24:12;9.90;;;2.13;;
59854;SDS011;45732;52.850;6.896;2023-08-01T12:26:37;5.20;;;1.42;;
59854;SDS011;45732;52.850;6.896;2023-08-01T12:29:03;5.75;;;1.42;;
59854;SDS011;45732;52.850;6.896;2023-08-01T12:31:29;5.95;;;1.70;;
59854;SDS011;45732;52.850;6.896;2023-08-01T12:33:55;6.97;;;1.70;;
59854;SDS011;45732;52.850;6.896;2023-08-01T12:36:21;5.63;;;1.58;;
59854;SDS011;45732;52.850;6.896;2023-08-01T12:38:47;6.88;;;1.83;;
59854;SDS011;45732;52.850;6.896;2023-08-01T12:41:13;7.40;;;2.28;;
59854;SDS011;45732;52.850;6.896;2023-08-01T12:43:39;7.05;;;1.90;;
59854;SDS011;45732;52.850;6.896;2023-08-01T12:46:05;8.32;;;1.88;;
59854;SDS011;45732;52.850;6.896;2023-08-01T12:48:30;7.82;;;2.50;;
59854;SDS011;45732;52.850;6.896;2023-08-01T12:50:56;7.65;;;2.17;;
59854;SDS011;45732;52.850;6.896;2023-08-01T12:53:22;7.75;;;2.38;;
59854;SDS011;45732;52.850;6.896;2023-08-01T12:55:48;7.75;;;2.28;;
59854;SDS011;45732;52.850;6.896;2023-08-01T12:58:15;11.75;;;2.30;;
59854;SDS011;45732;52.850;6.896;2023-08-01T13:00:42;7.60;;;1.98;;
59854;SDS011;45732;52.850;6.896;2023-08-01T13:03:08;7.93;;;1.73;;
59854;SDS011;45732;52.850;6.896;2023-08-01T13:05:38;8.40;;;1.90;;
59854;SDS011;45732;52.850;6.896;2023-08-01T13:08:05;7.07;;;1.85;;
59854;SDS011;45732;52.850;6.896;2023-08-01T13:10:31;5.07;;;1.80;;
59854;SDS011;45732;52.850;6.896;2023-08-01T13:12:58;5.72;;;1.40;;
59854;SDS011;45732;52.850;6.896;2023-08-01T13:15:24;7.75;;;1.90;;
59854;SDS011;45732;52.850;6.896;2023-08-01T13:17:50;5.72;;;1.83;;
59854;SDS011;45732;52.850;6.896;2023-08-01T13:20:16;6.82;;;1.70;;
59854;SDS011;45732;52.850;6.896;2023-08-01T13:22:43;5.43;;;1.60;;
59854;SDS011;45732;52.850;6.896;2023-08-01T13:25:10;6.07;;;2.00;;
59854;SDS011;45732;52.850;6.896;2023-08-01T13:27:37;8.02;;;2.10;;
59854;SDS011;45732;52.850;6.896;2023-08-01T13:30:02;9.63;;;2.17;;
59854;SDS011;45732;52.850;6.896;2023-08-01T13:32:28;5.53;;;1.67;;
59854;SDS011;45732;52.850;6.896;2023-08-01T13:34:54;8.10;;;2.20;;
59854;SDS011;45732;52.850;6.896;2023-08-01T13:37:20;7.90;;;2.15;;
59854;SDS011;45732;52.850;6.896;2023-08-01T13:39:45;5.03;;;1.80;;
59854;SDS011;45732;52.850;6.896;2023-08-01T13:42:11;6.32;;;2.00;;
59854;SDS011;45732;52.850;6.896;2023-08-01T13:44:37;8.45;;;1.92;;
59854;SDS011;45732;52.850;6.896;2023-08-01T13:47:03;7.18;;;2.08;;
59854;SDS011;45732;52.850;6.896;2023-08-01T13:49:30;8.38;;;1.95;;
59854;SDS011;45732;52.850;6.896;2023-08-01T13:51:55;8.93;;;2.33;;
59854;SDS011;45732;52.850;6.896;2023-08-01T13:54:21;6.90;;;1.88;;
59854;SDS011;45732;52.850;6.896;2023-08-01T13:56:47;5.35;;;1.92;;
59854;SDS011;45732;52.850;6.896;2023-08-01T13:59:13;8.65;;;2.05;;
59854;SDS011;45732;52.850;6.896;2023-08-01T14:01:39;5.57;;;1.77;;
59854;SDS011;45732;52.850;6.896;2023-08-01T14:04:05;7.85;;;2.65;;
59854;SDS011;45732;52.850;6.896;2023-08-01T14:06:30;7.85;;;1.95;;
59854;SDS011;45732;52.850;6.896;2023-08-01T14:08:56;8.25;;;1.90;;
59854;SDS011;45732;52.850;6.896;2023-08-01T14:11:22;7.03;;;2.25;;
59854;SDS011;45732;52.850;6.896;2023-08-01T14:13:48;7.28;;;2.00;;
59854;SDS011;45732;52.850;6.896;2023-08-01T14:16:14;7.53;;;2.40;;
59854;SDS011;45732;52.850;6.896;2023-08-01T14:18:42;6.07;;;1.88;;
59854;SDS011;45732;52.850;6.896;2023-08-01T14:21:09;6.93;;;1.80;;
59854;SDS011;45732;52.850;6.896;2023-08-01T14:23:35;5.40;;;1.30;;
59854;SDS011;45732;52.850;6.896;2023-08-01T14:26:03;5.68;;;1.70;;
59854;SDS011;45732;52.850;6.896;2023-08-01T14:28:29;7.60;;;1.88;;
59854;SDS011;45732;52.850;6.896;2023-08-01T14:30:55;6.35;;;1.75;;
59854;SDS011;45732;52.850;6.896;2023-08-01T14:33:20;8.70;;;2.05;;
59854;SDS011;45732;52.850;6.896;2023-08-01T14:35:46;6.85;;;1.70;;
59854;SDS011;45732;52.850;6.896;2023-08-01T14:38:12;5.05;;;1.70;;
59854;SDS011;45732;52.850;6.896;2023-08-01T14:40:38;5.32;;;1.40;;
59854;SDS011;45732;52.850;6.896;2023-08-01T14:43:04;5.65;;;1.65;;
59854;SDS011;45732;52.850;6.896;2023-08-01T14:45:30;4.22;;;1.20;;
59854;SDS011;45732;52.850;6.896;2023-08-01T14:47:56;3.90;;;1.40;;
59854;SDS011;45732;52.850;6.896;2023-08-01T14:50:21;6.72;;;1.30;;